sensor_id;sensor_type;location;lat;lon;timestamp;P1;durP1;ratioP1;P2;durP2;ratioP2
52029;SDS011;38043;53.224;6.580;2023-12-04T00:01:57;50.10;;;21.20;;
52029;SDS011;38043;53.224;6.580;2023-12-04T00:04:23;50.28;;;22.67;;
52029;SDS011;38043;53.224;6.580;2023-12-04T00:06:49;46.45;;;20.50;;
52029;SDS011;38043;53.224;6.580;2023-12-04T00:09:14;50.50;;;22.15;;
52029;SDS011;38043;53.224;6.580;2023-12-04T00:11:40;45.95;;;21.35;;
52029;SDS011;38043;53.224;6.580;2023-12-04T00:14:06;49.00;;;22.38;;
52029;SDS011;38043;53.224;6.580;2023-12-04T00:16:33;49.17;;;22.95;;
52029;SDS011;38043;53.224;6.580;2023-12-04T00:19:03;52.70;;;23.85;;
52029;SDS011;38043;53.224;6.580;2023-12-04T00:21:29;52.03;;;23.73;;
52029;SDS011;38043;53.224;6.580;2023-12-04T00:23:54;48.88;;;22.05;;
52029;SDS011;38043;53.224;6.580;2023-12-04T00:26:20;50.88;;;22.80;;
52029;SDS011;38043;53.224;6.580;2023-12-04T00:28:46;42.88;;;21.08;;
52029;SDS011;38043;53.224;6.580;2023-12-04T00:31:11;49.88;;;23.08;;
52029;SDS011;38043;53.224;6.580;2023-12-04T00:33:37;49.80;;;23.23;;
52029;SDS011;38043;53.224;6.580;2023-12-04T00:36:03;42.70;;;21.90;;
52029;SDS011;38043;53.224;6.580;2023-12-04T00:38:28;50.58;;;24.92;;
52029;SDS011;38043;53.224;6.580;2023-12-04T00:40:54;50.47;;;22.90;;
52029;SDS011;38043;53.224;6.580;2023-12-04T00:43:20;53.20;;;22.35;;
52029;SDS011;38043;53.224;6.580;2023-12-04T00:45:45;51.83;;;23.75;;
52029;SDS011;38043;53.224;6.580;2023-12-04T00:48:11;57.88;;;25.38;;
52029;SDS011;38043;53.224;6.580;2023-12-04T00:50:37;49.22;;;23.40;;
52029;SDS011;38043;53.224;6.580;2023-12-04T00:53:03;51.53;;;23.13;;
52029;SDS011;38043;53.224;6.580;2023-12-04T00:55:29;51.42;;;25.25;;
52029;SDS011;38043;53.224;6.580;2023-12-04T00:57:54;54.38;;;22.95;;
52029;SDS011;38043;53.224;6.580;2023-12-04T01:00:20;56.90;;;24.73;;
52029;SDS011;38043;53.224;6.580;2023-12-04T01:02:46;56.85;;;24.05;;
52029;SDS011;38043;53.224;6.580;2023-12-04T01:05:11;45.05;;;22.15;;
52029;SDS011;38043;53.224;6.580;2023-12-04T01:07:37;54.60;;;22.63;;
52029;SDS011;38043;53.224;6.580;2023-12-04T01:10:03;53.83;;;22.42;;
52029;SDS011;38043;53.224;6.580;2023-12-04T01:12:29;51.25;;;22.60;;
52029;SDS011;38043;53.224;6.580;2023-12-04T01:14:55;51.38;;;21.02;;
52029;SDS011;38043;53.224;6.580;2023-12-04T01:17:20;43.13;;;20.95;;
52029;SDS011;38043;53.224;6.580;2023-12-04T01:19:46;44.15;;;20.42;;
52029;SDS011;38043;53.224;6.580;2023-12-04T01:22:12;52.72;;;21.63;;
52029;SDS011;38043;53.224;6.580;2023-12-04T01:24:37;46.85;;;20.65;;
52029;SDS011;38043;53.224;6.580;2023-12-04T01:27:03;53.00;;;22.38;;
52029;SDS011;38043;53.224;6.580;2023-12-04T01:29:29;47.85;;;21.65;;
52029;SDS011;38043;53.224;6.580;2023-12-04T01:31:57;51.00;;;22.52;;
52029;SDS011;38043;53.224;6.580;2023-12-04T01:34:22;47.95;;;22.92;;
52029;SDS011;38043;53.224;6.580;2023-12-04T01:36:48;46.88;;;22.05;;
52029;SDS011;38043;53.224;6.580;2023-12-04T01:39:14;45.05;;;21.65;;
52029;SDS011;38043;53.224;6.580;2023-12-04T01:41:39;49.67;;;21.60;;
52029;SDS011;38043;53.224;6.580;2023-12-04T01:44:05;49.33;;;22.17;;
52029;SDS011;38043;53.224;6.580;2023-12-04T01:46:31;45.88;;;21.42;;
52029;SDS011;38043;53.224;6.580;2023-12-04T01:48:58;48.47;;;20.15;;
52029;SDS011;38043;53.224;6.580;2023-12-04T01:51:25;47.92;;;22.95;;
52029;SDS011;38043;53.224;6.580;2023-12-04T01:53:52;47.88;;;23.13;;
52029;SDS011;38043;53.224;6.580;2023-12-04T01:56:21;47.70;;;20.52;;
52029;SDS011;38043;53.224;6.580;2023-12-04T01:58:47;53.33;;;24.90;;
52029;SDS011;38043;53.224;6.580;2023-12-04T02:01:13;50.00;;;21.05;;
52029;SDS011;38043;53.224;6.580;2023-12-04T02:03:42;50.65;;;23.63;;
52029;SDS011;38043;53.224;6.580;2023-12-04T02:06:09;48.95;;;22.27;;
52029;SDS011;38043;53.224;6.580;2023-12-04T02:08:35;51.20;;;22.67;;
52029;SDS011;38043;53.224;6.580;2023-12-04T02:11:01;50.20;;;22.85;;
52029;SDS011;38043;53.224;6.580;2023-12-04T02:13:27;53.85;;;22.13;;
52029;SDS011;38043;53.224;6.580;2023-12-04T02:15:53;55.22;;;23.40;;
52029;SDS011;38043;53.224;6.580;2023-12-04T02:18:21;49.55;;;22.27;;
52029;SDS011;38043;53.224;6.580;2023-12-04T02:20:48;58.40;;;22.73;;
52029;SDS011;38043;53.224;6.580;2023-12-04T02:23:13;45.58;;;21.42;;
52029;SDS011;38043;53.224;6.580;2023-12-04T02:25:39;49.95;;;22.48;;
52029;SDS011;38043;53.224;6.580;2023-12-04T02:28:05;50.58;;;22.73;;
52029;SDS011;38043;53.224;6.580;2023-12-04T02:30:34;52.80;;;21.65;;
52029;SDS011;38043;53.224;6.580;2023-12-04T02:33:03;48.93;;;20.97;;
52029;SDS011;38043;53.224;6.580;2023-12-04T02:35:31;48.13;;;22.10;;
52029;SDS011;38043;53.224;6.580;2023-12-04T02:37:59;52.97;;;24.17;;
52029;SDS011;38043;53.224;6.580;2023-12-04T02:40:26;48.55;;;21.60;;
52029;SDS011;38043;53.224;6.580;2023-12-04T02:42:52;48.03;;;21.15;;
52029;SDS011;38043;53.224;6.580;2023-12-04T02:45:18;54.35;;;22.80;;
52029;SDS011;38043;53.224;6.580;2023-12-04T02:47:44;52.92;;;21.73;;
52029;SDS011;38043;53.224;6.580;2023-12-04T02:50:09;50.08;;;24.33;;
52029;SDS011;38043;53.224;6.580;2023-12-04T02:52:35;52.75;;;22.60;;
52029;SDS011;38043;53.224;6.580;2023-12-04T02:55:01;47.92;;;22.10;;
52029;SDS011;38043;53.224;6.580;2023-12-04T02:57:27;49.90;;;21.65;;
52029;SDS011;38043;53.224;6.580;2023-12-04T02:59:52;53.92;;;23.90;;
52029;SDS011;38043;53.224;6.580;2023-12-04T03:02:18;56.03;;;23.85;;
52029;SDS011;38043;53.224;6.580;2023-12-04T03:04:44;52.15;;;23.73;;
52029;SDS011;38043;53.224;6.580;2023-12-04T03:07:10;52.72;;;21.30;;
52029;SDS011;38043;53.224;6.580;2023-12-04T03:09:36;51.78;;;21.95;;
52029;SDS011;38043;53.224;6.580;2023-12-04T03:12:02;49.47;;;22.42;;
52029;SDS011;38043;53.224;6.580;2023-12-04T03:14:28;49.35;;;22.30;;
52029;SDS011;38043;53.224;6.580;2023-12-04T03:16:53;52.58;;;22.13;;
52029;SDS011;38043;53.224;6.580;2023-12-04T03:19:19;55.13;;;24.38;;
52029;SDS011;38043;53.224;6.580;2023-12-04T03:21:45;50.72;;;23.80;;
52029;SDS011;38043;53.224;6.580;2023-12-04T03:24:10;47.50;;;21.30;;
52029;SDS011;38043;53.224;6.580;2023-12-04T03:26:36;50.33;;;23.23;;
52029;SDS011;38043;53.224;6.580;2023-12-04T03:29:02;46.53;;;21.02;;
52029;SDS011;38043;53.224;6.580;2023-12-04T03:31:27;53.55;;;23.40;;
52029;SDS011;38043;53.224;6.580;2023-12-04T03:33:54;49.40;;;21.08;;
52029;SDS011;38043;53.224;6.580;2023-12-04T03:36:19;45.47;;;21.00;;
52029;SDS011;38043;53.224;6.580;2023-12-04T03:38:45;46.60;;;21.13;;
52029;SDS011;38043;53.224;6.580;2023-12-04T03:41:14;43.17;;;20.23;;
52029;SDS011;38043;53.224;6.580;2023-12-04T03:43:41;49.83;;;22.58;;
52029;SDS011;38043;53.224;6.580;2023-12-04T03:46:07;49.65;;;22.90;;
52029;SDS011;38043;53.224;6.580;2023-12-04T03:48:33;49.00;;;23.13;;
52029;SDS011;38043;53.224;6.580;2023-12-04T03:50:59;51.50;;;23.30;;
52029;SDS011;38043;53.224;6.580;2023-12-04T03:53:25;46.20;;;21.40;;
52029;SDS011;38043;53.224;6.580;2023-12-04T03:55:51;48.85;;;22.45;;
52029;SDS011;38043;53.224;6.580;2023-12-04T03:58:17;56.22;;;23.42;;
52029;SDS011;38043;53.224;6.580;2023-12-04T04:00:42;47.90;;;22.50;;
52029;SDS011;38043;53.224;6.580;2023-12-04T04:03:09;51.33;;;21.48;;
52029;SDS011;38043;53.224;6.580;2023-12-04T04:05:35;44.40;;;20.73;;
52029;SDS011;38043;53.224;6.580;2023-12-04T04:08:01;46.75;;;21.08;;
52029;SDS011;38043;53.224;6.580;2023-12-04T04:10:27;52.42;;;22.27;;
52029;SDS011;38043;53.224;6.580;2023-12-04T04:12:53;49.70;;;23.02;;
52029;SDS011;38043;53.224;6.580;2023-12-04T04:15:22;45.90;;;21.30;;
52029;SDS011;38043;53.224;6.580;2023-12-04T04:17:47;48.00;;;21.45;;
52029;SDS011;38043;53.224;6.580;2023-12-04T04:20:13;51.53;;;21.95;;
52029;SDS011;38043;53.224;6.580;2023-12-04T04:22:39;48.25;;;22.08;;
52029;SDS011;38043;53.224;6.580;2023-12-04T04:25:09;46.53;;;21.77;;
52029;SDS011;38043;53.224;6.580;2023-12-04T04:27:38;51.45;;;21.70;;
52029;SDS011;38043;53.224;6.580;2023-12-04T04:30:03;40.08;;;20.58;;
52029;SDS011;38043;53.224;6.580;2023-12-04T04:32:30;49.33;;;21.45;;
52029;SDS011;38043;53.224;6.580;2023-12-04T04:34:56;50.25;;;23.27;;
52029;SDS011;38043;53.224;6.580;2023-12-04T04:37:21;54.58;;;22.30;;
52029;SDS011;38043;53.224;6.580;2023-12-04T04:39:47;51.85;;;22.88;;
52029;SDS011;38043;53.224;6.580;2023-12-04T04:44:41;48.20;;;22.08;;
52029;SDS011;38043;53.224;6.580;2023-12-04T04:47:07;48.33;;;21.08;;
52029;SDS011;38043;53.224;6.580;2023-12-04T04:49:34;55.00;;;23.30;;
52029;SDS011;38043;53.224;6.580;2023-12-04T04:51:59;53.10;;;23.00;;
52029;SDS011;38043;53.224;6.580;2023-12-04T04:54:25;55.50;;;24.27;;
52029;SDS011;38043;53.224;6.580;2023-12-04T04:57:03;51.40;;;22.98;;
52029;SDS011;38043;53.224;6.580;2023-12-04T04:59:29;48.50;;;19.65;;
52029;SDS011;38043;53.224;6.580;2023-12-04T05:01:57;51.03;;;23.65;;
52029;SDS011;38043;53.224;6.580;2023-12-04T05:04:22;48.45;;;20.55;;
52029;SDS011;38043;53.224;6.580;2023-12-04T05:06:48;46.75;;;21.05;;
52029;SDS011;38043;53.224;6.580;2023-12-04T05:09:14;53.03;;;22.98;;
52029;SDS011;38043;53.224;6.580;2023-12-04T05:11:40;43.35;;;21.40;;
52029;SDS011;38043;53.224;6.580;2023-12-04T05:14:06;52.00;;;22.30;;
52029;SDS011;38043;53.224;6.580;2023-12-04T05:16:31;51.20;;;21.95;;
52029;SDS011;38043;53.224;6.580;2023-12-04T05:18:57;50.58;;;24.02;;
52029;SDS011;38043;53.224;6.580;2023-12-04T05:21:23;47.78;;;22.13;;
52029;SDS011;38043;53.224;6.580;2023-12-04T05:23:48;47.00;;;21.45;;
52029;SDS011;38043;53.224;6.580;2023-12-04T05:26:14;43.83;;;20.15;;
52029;SDS011;38043;53.224;6.580;2023-12-04T05:28:40;43.83;;;21.30;;
52029;SDS011;38043;53.224;6.580;2023-12-04T05:31:05;44.05;;;20.85;;
52029;SDS011;38043;53.224;6.580;2023-12-04T05:33:31;46.33;;;20.38;;
52029;SDS011;38043;53.224;6.580;2023-12-04T05:35:57;44.55;;;20.95;;
52029;SDS011;38043;53.224;6.580;2023-12-04T05:38:23;55.33;;;22.73;;
52029;SDS011;38043;53.224;6.580;2023-12-04T05:40:48;46.38;;;21.80;;
52029;SDS011;38043;53.224;6.580;2023-12-04T05:43:14;48.67;;;21.50;;
52029;SDS011;38043;53.224;6.580;2023-12-04T05:45:40;49.88;;;21.17;;
52029;SDS011;38043;53.224;6.580;2023-12-04T05:48:05;46.90;;;20.83;;
52029;SDS011;38043;53.224;6.580;2023-12-04T05:50:31;46.97;;;21.10;;
52029;SDS011;38043;53.224;6.580;2023-12-04T05:52:57;44.15;;;20.85;;
52029;SDS011;38043;53.224;6.580;2023-12-04T05:55:23;44.55;;;20.60;;
52029;SDS011;38043;53.224;6.580;2023-12-04T05:57:49;37.70;;;18.77;;
52029;SDS011;38043;53.224;6.580;2023-12-04T06:00:18;44.13;;;19.60;;
52029;SDS011;38043;53.224;6.580;2023-12-04T06:02:44;39.58;;;19.10;;
52029;SDS011;38043;53.224;6.580;2023-12-04T06:05:10;43.63;;;20.17;;
52029;SDS011;38043;53.224;6.580;2023-12-04T06:07:39;40.05;;;17.83;;
52029;SDS011;38043;53.224;6.580;2023-12-04T06:10:06;42.58;;;20.42;;
52029;SDS011;38043;53.224;6.580;2023-12-04T06:12:33;47.50;;;19.92;;
52029;SDS011;38043;53.224;6.580;2023-12-04T06:14:59;39.85;;;20.65;;
52029;SDS011;38043;53.224;6.580;2023-12-04T06:17:25;37.03;;;19.00;;
52029;SDS011;38043;53.224;6.580;2023-12-04T06:19:53;39.37;;;18.97;;
52029;SDS011;38043;53.224;6.580;2023-12-04T06:22:19;39.13;;;19.33;;
52029;SDS011;38043;53.224;6.580;2023-12-04T06:24:46;39.15;;;19.02;;
52029;SDS011;38043;53.224;6.580;2023-12-04T06:27:15;36.85;;;18.60;;
52029;SDS011;38043;53.224;6.580;2023-12-04T06:29:43;40.15;;;19.27;;
52029;SDS011;38043;53.224;6.580;2023-12-04T06:32:10;45.17;;;20.67;;
52029;SDS011;38043;53.224;6.580;2023-12-04T06:34:36;36.15;;;18.00;;
52029;SDS011;38043;53.224;6.580;2023-12-04T06:37:11;35.92;;;17.90;;
52029;SDS011;38043;53.224;6.580;2023-12-04T06:39:39;34.25;;;17.45;;
52029;SDS011;38043;53.224;6.580;2023-12-04T06:42:06;38.00;;;17.95;;
52029;SDS011;38043;53.224;6.580;2023-12-04T06:44:33;41.20;;;19.35;;
52029;SDS011;38043;53.224;6.580;2023-12-04T06:47:01;37.05;;;18.98;;
52029;SDS011;38043;53.224;6.580;2023-12-04T06:49:31;38.28;;;18.15;;
52029;SDS011;38043;53.224;6.580;2023-12-04T06:51:58;36.92;;;17.50;;
52029;SDS011;38043;53.224;6.580;2023-12-04T06:54:24;35.17;;;17.42;;
52029;SDS011;38043;53.224;6.580;2023-12-04T06:56:56;38.85;;;18.25;;
52029;SDS011;38043;53.224;6.580;2023-12-04T06:59:22;36.78;;;18.02;;
52029;SDS011;38043;53.224;6.580;2023-12-04T07:01:48;36.17;;;17.17;;
52029;SDS011;38043;53.224;6.580;2023-12-04T07:04:13;34.92;;;17.92;;
52029;SDS011;38043;53.224;6.580;2023-12-04T07:06:39;38.90;;;17.98;;
52029;SDS011;38043;53.224;6.580;2023-12-04T07:09:08;39.28;;;18.00;;
52029;SDS011;38043;53.224;6.580;2023-12-04T07:11:34;36.65;;;18.05;;
52029;SDS011;38043;53.224;6.580;2023-12-04T07:14:01;37.97;;;19.27;;
52029;SDS011;38043;53.224;6.580;2023-12-04T07:16:26;39.40;;;18.83;;
52029;SDS011;38043;53.224;6.580;2023-12-04T07:18:52;37.97;;;18.55;;
52029;SDS011;38043;53.224;6.580;2023-12-04T07:21:21;35.25;;;17.15;;
52029;SDS011;38043;53.224;6.580;2023-12-04T07:23:47;37.60;;;17.15;;
52029;SDS011;38043;53.224;6.580;2023-12-04T07:26:12;35.08;;;16.90;;
52029;SDS011;38043;53.224;6.580;2023-12-04T07:28:38;38.65;;;16.98;;
52029;SDS011;38043;53.224;6.580;2023-12-04T07:31:04;33.15;;;16.52;;
52029;SDS011;38043;53.224;6.580;2023-12-04T07:33:30;34.35;;;17.40;;
52029;SDS011;38043;53.224;6.580;2023-12-04T07:35:59;41.47;;;17.65;;
52029;SDS011;38043;53.224;6.580;2023-12-04T07:38:25;36.90;;;17.67;;
52029;SDS011;38043;53.224;6.580;2023-12-04T07:40:58;31.83;;;16.65;;
52029;SDS011;38043;53.224;6.580;2023-12-04T07:45:49;35.55;;;16.95;;
52029;SDS011;38043;53.224;6.580;2023-12-04T07:48:15;29.95;;;15.73;;
52029;SDS011;38043;53.224;6.580;2023-12-04T07:50:41;31.23;;;16.15;;
52029;SDS011;38043;53.224;6.580;2023-12-04T07:53:07;36.78;;;16.55;;
52029;SDS011;38043;53.224;6.580;2023-12-04T07:55:35;30.95;;;15.55;;
52029;SDS011;38043;53.224;6.580;2023-12-04T07:58:04;32.22;;;16.88;;
52029;SDS011;38043;53.224;6.580;2023-12-04T08:00:29;30.88;;;15.23;;
52029;SDS011;38043;53.224;6.580;2023-12-04T08:02:55;29.85;;;15.65;;
52029;SDS011;38043;53.224;6.580;2023-12-04T08:05:22;33.10;;;15.75;;
52029;SDS011;38043;53.224;6.580;2023-12-04T08:07:50;32.65;;;15.50;;
52029;SDS011;38043;53.224;6.580;2023-12-04T08:10:16;32.90;;;16.48;;
52029;SDS011;38043;53.224;6.580;2023-12-04T08:12:44;31.42;;;14.65;;
52029;SDS011;38043;53.224;6.580;2023-12-04T08:15:12;36.55;;;16.73;;
52029;SDS011;38043;53.224;6.580;2023-12-04T08:17:41;29.45;;;15.07;;
52029;SDS011;38043;53.224;6.580;2023-12-04T08:20:06;26.58;;;14.88;;
52029;SDS011;38043;53.224;6.580;2023-12-04T08:22:32;28.92;;;15.90;;
52029;SDS011;38043;53.224;6.580;2023-12-04T08:24:58;28.33;;;14.20;;
52029;SDS011;38043;53.224;6.580;2023-12-04T08:27:24;28.73;;;15.50;;
52029;SDS011;38043;53.224;6.580;2023-12-04T08:29:53;28.92;;;14.38;;
52029;SDS011;38043;53.224;6.580;2023-12-04T08:32:19;26.98;;;14.65;;
52029;SDS011;38043;53.224;6.580;2023-12-04T08:34:46;26.33;;;14.27;;
52029;SDS011;38043;53.224;6.580;2023-12-04T08:37:12;27.55;;;14.82;;
52029;SDS011;38043;53.224;6.580;2023-12-04T08:39:37;26.02;;;14.75;;
52029;SDS011;38043;53.224;6.580;2023-12-04T08:42:03;29.15;;;14.48;;
52029;SDS011;38043;53.224;6.580;2023-12-04T08:44:29;27.27;;;13.75;;
52029;SDS011;38043;53.224;6.580;2023-12-04T08:47:01;24.83;;;13.25;;
52029;SDS011;38043;53.224;6.580;2023-12-04T08:49:27;31.45;;;15.93;;
52029;SDS011;38043;53.224;6.580;2023-12-04T08:51:52;27.48;;;15.00;;
52029;SDS011;38043;53.224;6.580;2023-12-04T08:54:18;25.90;;;13.68;;
52029;SDS011;38043;53.224;6.580;2023-12-04T08:56:44;25.13;;;13.60;;
52029;SDS011;38043;53.224;6.580;2023-12-04T08:59:10;26.80;;;12.77;;
52029;SDS011;38043;53.224;6.580;2023-12-04T09:01:35;22.23;;;12.82;;
52029;SDS011;38043;53.224;6.580;2023-12-04T09:04:01;25.85;;;13.95;;
52029;SDS011;38043;53.224;6.580;2023-12-04T09:06:27;23.77;;;13.32;;
52029;SDS011;38043;53.224;6.580;2023-12-04T09:08:53;20.83;;;11.70;;
52029;SDS011;38043;53.224;6.580;2023-12-04T09:11:18;25.23;;;13.45;;
52029;SDS011;38043;53.224;6.580;2023-12-04T09:13:44;23.50;;;13.27;;
52029;SDS011;38043;53.224;6.580;2023-12-04T09:16:10;23.13;;;12.80;;
52029;SDS011;38043;53.224;6.580;2023-12-04T09:18:36;24.63;;;13.05;;
52029;SDS011;38043;53.224;6.580;2023-12-04T09:21:02;23.77;;;12.68;;
52029;SDS011;38043;53.224;6.580;2023-12-04T09:23:28;27.08;;;12.88;;
52029;SDS011;38043;53.224;6.580;2023-12-04T09:25:53;21.30;;;13.20;;
52029;SDS011;38043;53.224;6.580;2023-12-04T09:28:19;24.00;;;13.45;;
52029;SDS011;38043;53.224;6.580;2023-12-04T09:30:48;21.58;;;12.35;;
52029;SDS011;38043;53.224;6.580;2023-12-04T09:33:13;19.77;;;10.98;;
52029;SDS011;38043;53.224;6.580;2023-12-04T09:35:39;21.67;;;11.23;;
52029;SDS011;38043;53.224;6.580;2023-12-04T09:38:05;19.70;;;11.55;;
52029;SDS011;38043;53.224;6.580;2023-12-04T09:40:32;22.50;;;11.02;;
52029;SDS011;38043;53.224;6.580;2023-12-04T09:42:57;20.67;;;11.30;;
52029;SDS011;38043;53.224;6.580;2023-12-04T09:45:24;19.42;;;11.52;;
52029;SDS011;38043;53.224;6.580;2023-12-04T09:47:51;19.13;;;10.98;;
52029;SDS011;38043;53.224;6.580;2023-12-04T09:50:17;23.85;;;12.50;;
52029;SDS011;38043;53.224;6.580;2023-12-04T09:55:18;21.98;;;11.27;;
52029;SDS011;38043;53.224;6.580;2023-12-04T09:57:45;20.95;;;11.07;;
52029;SDS011;38043;53.224;6.580;2023-12-04T10:00:14;17.95;;;11.13;;
52029;SDS011;38043;53.224;6.580;2023-12-04T10:02:41;20.25;;;11.90;;
52029;SDS011;38043;53.224;6.580;2023-12-04T10:05:08;18.75;;;10.90;;
52029;SDS011;38043;53.224;6.580;2023-12-04T10:07:34;18.92;;;11.63;;
52029;SDS011;38043;53.224;6.580;2023-12-04T10:10:02;19.85;;;11.25;;
52029;SDS011;38043;53.224;6.580;2023-12-04T10:12:30;17.52;;;10.00;;
52029;SDS011;38043;53.224;6.580;2023-12-04T10:15:08;21.75;;;11.55;;
52029;SDS011;38043;53.224;6.580;2023-12-04T10:17:36;18.15;;;11.07;;
52029;SDS011;38043;53.224;6.580;2023-12-04T10:20:14;19.25;;;10.65;;
52029;SDS011;38043;53.224;6.580;2023-12-04T10:22:56;19.67;;;11.07;;
52029;SDS011;38043;53.224;6.580;2023-12-04T10:25:23;22.73;;;11.48;;
52029;SDS011;38043;53.224;6.580;2023-12-04T10:27:54;17.88;;;10.32;;
52029;SDS011;38043;53.224;6.580;2023-12-04T10:30:33;21.50;;;10.57;;
52029;SDS011;38043;53.224;6.580;2023-12-04T10:33:01;17.15;;;9.68;;
52029;SDS011;38043;53.224;6.580;2023-12-04T10:35:31;17.15;;;9.73;;
52029;SDS011;38043;53.224;6.580;2023-12-04T10:37:58;16.92;;;9.98;;
52029;SDS011;38043;53.224;6.580;2023-12-04T10:40:25;21.23;;;10.18;;
52029;SDS011;38043;53.224;6.580;2023-12-04T10:42:57;18.38;;;11.27;;
52029;SDS011;38043;53.224;6.580;2023-12-04T10:45:40;19.20;;;9.70;;
52029;SDS011;38043;53.224;6.580;2023-12-04T10:48:07;16.98;;;9.40;;
52029;SDS011;38043;53.224;6.580;2023-12-04T10:50:37;17.50;;;10.05;;
52029;SDS011;38043;53.224;6.580;2023-12-04T10:53:08;16.75;;;9.40;;
52029;SDS011;38043;53.224;6.580;2023-12-04T10:55:35;17.83;;;10.48;;
52029;SDS011;38043;53.224;6.580;2023-12-04T10:58:06;14.55;;;9.20;;
52029;SDS011;38043;53.224;6.580;2023-12-04T11:00:33;15.07;;;9.65;;
52029;SDS011;38043;53.224;6.580;2023-12-04T11:03:16;15.70;;;8.82;;
52029;SDS011;38043;53.224;6.580;2023-12-04T11:05:49;15.13;;;8.57;;
52029;SDS011;38043;53.224;6.580;2023-12-04T11:08:20;15.93;;;9.75;;
52029;SDS011;38043;53.224;6.580;2023-12-04T11:13:41;17.30;;;9.85;;
52029;SDS011;38043;53.224;6.580;2023-12-04T11:18:47;15.65;;;8.73;;
52029;SDS011;38043;53.224;6.580;2023-12-04T11:21:16;16.80;;;9.25;;
52029;SDS011;38043;53.224;6.580;2023-12-04T11:23:45;16.73;;;9.65;;
52029;SDS011;38043;53.224;6.580;2023-12-04T11:26:15;15.20;;;9.50;;
52029;SDS011;38043;53.224;6.580;2023-12-04T11:28:41;17.45;;;9.13;;
52029;SDS011;38043;53.224;6.580;2023-12-04T11:31:08;13.30;;;8.40;;
52029;SDS011;38043;53.224;6.580;2023-12-04T11:33:34;13.90;;;7.80;;
52029;SDS011;38043;53.224;6.580;2023-12-04T11:36:08;14.33;;;8.17;;
52029;SDS011;38043;53.224;6.580;2023-12-04T11:38:35;15.32;;;9.27;;
52029;SDS011;38043;53.224;6.580;2023-12-04T11:41:11;14.75;;;8.52;;
52029;SDS011;38043;53.224;6.580;2023-12-04T11:43:40;13.32;;;8.38;;
52029;SDS011;38043;53.224;6.580;2023-12-04T11:46:10;14.07;;;8.63;;
52029;SDS011;38043;53.224;6.580;2023-12-04T11:48:42;17.35;;;8.43;;
52029;SDS011;38043;53.224;6.580;2023-12-04T11:51:08;13.40;;;8.18;;
52029;SDS011;38043;53.224;6.580;2023-12-04T11:53:39;16.25;;;9.95;;
52029;SDS011;38043;53.224;6.580;2023-12-04T11:56:11;15.85;;;9.23;;
52029;SDS011;38043;53.224;6.580;2023-12-04T11:58:44;13.13;;;8.75;;
52029;SDS011;38043;53.224;6.580;2023-12-04T12:01:11;14.35;;;8.85;;
52029;SDS011;38043;53.224;6.580;2023-12-04T12:03:37;14.05;;;8.55;;
52029;SDS011;38043;53.224;6.580;2023-12-04T12:06:03;16.55;;;9.15;;
52029;SDS011;38043;53.224;6.580;2023-12-04T12:08:29;16.13;;;9.57;;
52029;SDS011;38043;53.224;6.580;2023-12-04T12:10:58;17.10;;;9.23;;
52029;SDS011;38043;53.224;6.580;2023-12-04T12:13:27;14.95;;;9.35;;
52029;SDS011;38043;53.224;6.580;2023-12-04T12:15:53;15.45;;;9.55;;
52029;SDS011;38043;53.224;6.580;2023-12-04T12:18:18;13.10;;;8.73;;
52029;SDS011;38043;53.224;6.580;2023-12-04T12:20:46;14.10;;;8.75;;
52029;SDS011;38043;53.224;6.580;2023-12-04T12:23:12;18.40;;;10.38;;
52029;SDS011;38043;53.224;6.580;2023-12-04T12:25:38;15.40;;;8.18;;
52029;SDS011;38043;53.224;6.580;2023-12-04T12:28:07;17.75;;;8.75;;
52029;SDS011;38043;53.224;6.580;2023-12-04T12:30:33;16.48;;;9.35;;
52029;SDS011;38043;53.224;6.580;2023-12-04T12:32:58;14.68;;;9.32;;
52029;SDS011;38043;53.224;6.580;2023-12-04T12:35:24;15.88;;;9.40;;
52029;SDS011;38043;53.224;6.580;2023-12-04T12:37:50;14.27;;;8.80;;
52029;SDS011;38043;53.224;6.580;2023-12-04T12:42:45;16.05;;;8.57;;
52029;SDS011;38043;53.224;6.580;2023-12-04T12:45:11;16.60;;;9.25;;
52029;SDS011;38043;53.224;6.580;2023-12-04T12:47:43;16.55;;;9.23;;
52029;SDS011;38043;53.224;6.580;2023-12-04T12:50:09;14.93;;;9.05;;
52029;SDS011;38043;53.224;6.580;2023-12-04T12:52:38;14.23;;;8.80;;
52029;SDS011;38043;53.224;6.580;2023-12-04T12:55:08;16.08;;;10.20;;
52029;SDS011;38043;53.224;6.580;2023-12-04T12:57:35;15.15;;;9.68;;
52029;SDS011;38043;53.224;6.580;2023-12-04T13:00:00;14.55;;;9.63;;
52029;SDS011;38043;53.224;6.580;2023-12-04T13:02:26;16.05;;;9.80;;
52029;SDS011;38043;53.224;6.580;2023-12-04T13:04:52;16.23;;;9.95;;
52029;SDS011;38043;53.224;6.580;2023-12-04T13:07:18;17.75;;;9.63;;
52029;SDS011;38043;53.224;6.580;2023-12-04T13:09:44;18.10;;;10.30;;
52029;SDS011;38043;53.224;6.580;2023-12-04T13:12:10;18.63;;;10.85;;
52029;SDS011;38043;53.224;6.580;2023-12-04T13:14:35;16.52;;;10.05;;
52029;SDS011;38043;53.224;6.580;2023-12-04T13:17:02;15.30;;;9.07;;
52029;SDS011;38043;53.224;6.580;2023-12-04T13:19:30;16.17;;;9.52;;
52029;SDS011;38043;53.224;6.580;2023-12-04T13:21:58;13.55;;;9.10;;
52029;SDS011;38043;53.224;6.580;2023-12-04T13:24:27;13.47;;;9.20;;
52029;SDS011;38043;53.224;6.580;2023-12-04T13:26:52;16.40;;;9.35;;
52029;SDS011;38043;53.224;6.580;2023-12-04T13:29:21;17.90;;;10.73;;
52029;SDS011;38043;53.224;6.580;2023-12-04T13:31:48;15.30;;;9.32;;
52029;SDS011;38043;53.224;6.580;2023-12-04T13:34:15;15.20;;;9.55;;
52029;SDS011;38043;53.224;6.580;2023-12-04T13:36:41;15.55;;;9.38;;
52029;SDS011;38043;53.224;6.580;2023-12-04T13:39:08;16.77;;;10.02;;
52029;SDS011;38043;53.224;6.580;2023-12-04T13:41:51;15.07;;;9.27;;
52029;SDS011;38043;53.224;6.580;2023-12-04T13:44:52;15.05;;;9.07;;
52029;SDS011;38043;53.224;6.580;2023-12-04T13:47:17;16.05;;;8.43;;
52029;SDS011;38043;53.224;6.580;2023-12-04T13:49:43;17.20;;;9.65;;
52029;SDS011;38043;53.224;6.580;2023-12-04T13:52:11;14.18;;;9.13;;
52029;SDS011;38043;53.224;6.580;2023-12-04T13:54:37;15.25;;;8.55;;
52029;SDS011;38043;53.224;6.580;2023-12-04T13:57:13;18.42;;;9.18;;
52029;SDS011;38043;53.224;6.580;2023-12-04T14:00:08;16.35;;;9.55;;
52029;SDS011;38043;53.224;6.580;2023-12-04T14:02:34;14.88;;;9.18;;
52029;SDS011;38043;53.224;6.580;2023-12-04T14:05:02;14.90;;;8.88;;
52029;SDS011;38043;53.224;6.580;2023-12-04T14:07:28;15.52;;;9.73;;
52029;SDS011;38043;53.224;6.580;2023-12-04T14:09:54;20.80;;;9.30;;
52029;SDS011;38043;53.224;6.580;2023-12-04T14:12:20;18.90;;;9.73;;
52029;SDS011;38043;53.224;6.580;2023-12-04T14:14:52;16.33;;;9.52;;
52029;SDS011;38043;53.224;6.580;2023-12-04T14:17:22;15.80;;;9.23;;
52029;SDS011;38043;53.224;6.580;2023-12-04T14:19:49;15.02;;;9.20;;
52029;SDS011;38043;53.224;6.580;2023-12-04T14:22:15;18.38;;;9.40;;
52029;SDS011;38043;53.224;6.580;2023-12-04T14:24:41;15.50;;;9.15;;
52029;SDS011;38043;53.224;6.580;2023-12-04T14:27:10;16.40;;;9.55;;
52029;SDS011;38043;53.224;6.580;2023-12-04T14:29:39;15.82;;;9.75;;
52029;SDS011;38043;53.224;6.580;2023-12-04T14:32:05;18.08;;;9.68;;
52029;SDS011;38043;53.224;6.580;2023-12-04T14:34:31;15.07;;;8.50;;
52029;SDS011;38043;53.224;6.580;2023-12-04T14:37:00;14.27;;;9.00;;
52029;SDS011;38043;53.224;6.580;2023-12-04T14:39:25;14.63;;;9.60;;
52029;SDS011;38043;53.224;6.580;2023-12-04T14:41:57;14.10;;;8.90;;